Terminal Aerodrome Forecast
Issued by NWS

Home | Current Version | Previous Version | Text Only | Print | Product List | Glossary On
Versions: 1 2 3 4 5 6 7 8 9 10 11 12
000
FTUS42 KTAE 172320
TAFDHN
TAF
KDHN 172320Z 1800/1824 20008KT P6SM BKN050
     FM180300 00000KT 4SM BR OVC020
     FM180600 00000KT 1SM BR OVC002
     FM181400 27004KT P6SM SCT002 BKN040
     FM181800 27006KT P6SM BKN040=

USA.gov is the U.S. government's official web portal to all federal, state and local government web resources and services.